Latest Weather Observations for Parndana

IDS60801

Issued at 6:35 pm CST Saturday 23 August 2014 (issued every 30 minutes, with the page automatically refreshed every 10 minutes)

About weather observations | Map of weather stations | Latest weather observations for SA | Other Formats
Station Details ID: 022843 Name: PARNDANA CFS AWS Lat: -35.79 Lon: 137.25 Height: 165.0 m
Data from the previous 72 hours. | See also: Recent months at Parndana
Date/Time
CST
Temp
°C
App
Temp
°C
Dew
Point
Rel
Hum
%
Delta-T
°C
Wind Press
QNH
hPa
Press
MSL
hPa
Rain
since 9 am
mm
Dir
 
Spd
km/h
Gust
km/h
Spd
kts
Gust
kts
23/06:30pm 9.7 6.4 8.1 90 0.8 WSW 15 19 8 10 - - 1.0
23/06:00pm 10.0 6.8 8.4 90 0.8 WSW 15 24 8 13 - - 1.0
23/05:30pm 10.7 7.2 8.8 88 0.9 WSW 17 20 9 11 - - 1.0
23/05:00pm 11.8 7.7 8.5 80 1.6 WSW 20 30 11 16 - - 1.0
23/04:30pm 12.6 7.8 8.7 77 2.0 WSW 24 35 13 19 - - 1.0
23/04:00pm 13.5 8.8 9.2 75 2.2 WSW 24 37 13 20 - - 1.0
23/03:30pm 13.5 8.8 9.4 76 2.1 WSW 24 33 13 18 - - 1.0
23/03:00pm 13.4 8.1 9.8 79 1.9 W 28 39 15 21 - - 1.0
23/02:30pm 13.9 8.9 9.7 76 2.2 W 26 39 14 21 - - 1.0
23/02:00pm 14.0 8.8 10.4 79 1.9 W 28 37 15 20 - - 1.0
23/01:30pm 13.4 8.1 9.8 79 1.9 W 28 37 15 20 - - 1.0
23/01:00pm 11.2 4.4 9.3 88 1.0 WSW 35 54 19 29 - - 0.8
23/12:53pm 12.4 5.7 8.3 76 2.0 W 33 54 18 29 - - 0.6
23/12:30pm 13.6 8.5 10.6 82 1.6 W 28 37 15 20 - - 0.6
23/12:01pm 13.0 7.0 8.7 75 2.2 W 30 48 16 26 - - 0.0
23/12:00pm 13.6 7.7 8.9 73 2.4 W 30 46 16 25 - - 0.0
23/11:30am 13.9 8.3 10.1 78 2.0 W 30 41 16 22 - - 0.0
23/11:00am 14.1 7.5 8.5 69 2.8 W 33 43 18 23 - - 0.0
23/10:30am 13.6 6.5 8.0 69 2.8 W 35 50 19 27 - - 0.0
23/10:22am 14.3 8.5 9.3 72 2.6 WNW 30 50 16 27 - - 0.0
23/10:00am 13.6 7.0 8.7 72 2.5 W 33 44 18 24 - - 0.0
23/09:37am 13.8 7.7 9.6 76 2.2 W 32 54 17 29 - - 0.0
23/09:30am 13.4 8.8 9.8 79 1.9 WNW 24 37 13 20 - - 0.0
23/09:00am 12.1 8.2 9.3 83 1.4 W 20 30 11 16 - - 1.4
23/08:30am 11.9 9.6 10.3 90 0.8 WNW 13 26 7 14 - - 1.4
23/08:00am 11.6 8.8 10.0 90 0.8 W 15 20 8 11 - - 1.4
23/07:30am 11.8 9.6 10.9 94 0.5 NW 13 22 7 12 - - 1.2
23/07:00am 12.1 10.3 10.7 91 0.7 NW 11 17 6 9 - - 0.6
23/06:30am 12.3 10.5 10.7 90 0.8 WNW 11 17 6 9 - - 0.4
23/06:00am 12.6 8.8 9.2 80 1.7 NNW 19 24 10 13 - - 0.4
23/05:30am 12.4 8.0 7.5 72 2.4 N 20 28 11 15 - - 0.4
23/05:00am 12.8 7.7 7.5 70 2.6 N 24 32 13 17 - - 0.4
23/04:30am 12.3 7.9 7.2 71 2.5 N 20 33 11 18 - - 0.4
23/04:00am 12.5 7.3 7.2 70 2.6 N 24 37 13 20 - - 0.4
23/03:30am 12.7 8.4 7.0 68 2.8 N 19 26 10 14 - - 0.0
23/03:00am 13.6 8.0 5.3 57 3.9 N 24 39 13 21 - - 0.0
23/02:30am 14.1 7.4 3.8 50 4.7 N 28 43 15 23 - - 0.0
23/02:00am 14.2 7.6 4.2 51 4.6 N 28 39 15 21 - - 0.0
23/01:30am 14.0 8.6 4.6 53 4.4 N 22 32 12 17 - - 0.0
23/01:00am 14.4 9.5 5.0 53 4.4 N 20 32 11 17 - - 0.0
23/12:30am 14.8 9.1 4.8 51 4.7 N 24 32 13 17 - - 0.0
23/12:00am 15.0 9.1 6.0 55 4.4 N 26 35 14 19 - - 0.0
 
Date/Time
CST
Temp
°C
App
Temp
°C
Dew
Point
Rel
Hum
%
Delta-T
°C
Wind Press
QNH
hPa
Press
MSL
hPa
Rain
since 9 am
mm
Dir
 
Spd
km/h
Gust
km/h
Spd
kts
Gust
kts
22/11:30pm 14.7 9.3 6.5 58 4.0 NNE 24 33 13 18 - - 0.0
22/11:00pm 14.2 9.3 7.0 62 3.5 N 22 35 12 19 - - 0.0
22/10:30pm 14.7 8.9 6.3 57 4.1 NNE 26 35 14 19 - - 0.0
22/10:00pm 15.0 9.1 5.8 54 4.4 N 26 35 14 19 - - 0.0
22/09:30pm 13.6 8.8 5.7 59 3.8 NNE 20 30 11 16 - - 0.0
22/09:00pm 13.4 8.3 6.0 61 3.5 NNE 22 28 12 15 - - 0.0
22/08:30pm 13.2 8.5 6.1 62 3.4 NNE 20 30 11 16 - - 0.0
22/08:00pm 12.9 8.3 6.5 65 3.1 N 20 30 11 16 - - 0.0
22/07:30pm 13.4 8.0 6.5 63 3.3 N 24 35 13 19 - - 0.0
22/07:00pm 12.8 8.4 6.6 66 3.0 NNE 19 24 10 13 - - 0.0
22/06:30pm 12.9 8.5 6.7 66 3.0 NNE 19 24 10 13 - - 0.0
22/06:00pm 13.5 9.3 7.3 66 3.1 NNE 19 24 10 13 - - 0.0
22/05:30pm 14.4 10.2 7.5 63 3.4 NNE 19 28 10 15 - - 0.0
22/05:00pm 15.3 10.9 7.3 59 4.0 NNE 20 28 11 15 - - 0.0
22/04:30pm 15.6 11.9 8.1 61 3.8 NNE 17 24 9 13 - - 0.0
22/04:00pm 16.2 11.6 8.2 59 4.1 NNE 22 32 12 17 - - 0.0
22/03:30pm 16.7 12.8 9.4 62 3.8 NNE 20 30 11 16 - - 0.0
22/03:00pm 16.9 11.3 8.6 58 4.3 NNE 28 37 15 20 - - 0.0
22/02:30pm 17.1 11.2 7.5 53 4.9 N 28 35 15 19 - - 0.0
22/02:00pm 17.1 11.4 8.3 56 4.5 N 28 41 15 22 - - 0.0
22/01:30pm 17.0 11.0 7.1 52 5.0 N 28 41 15 22 - - 0.0
22/01:00pm 17.0 11.9 7.6 54 4.8 N 24 37 13 20 - - 0.0
22/12:30pm 16.6 10.7 7.5 55 4.6 N 28 39 15 21 - - 0.0
22/12:00pm 16.6 10.3 7.3 54 4.7 N 30 44 16 24 - - 0.0
22/11:30am 16.1 9.6 6.3 52 4.8 N 30 44 16 24 - - 0.0
22/11:00am 15.8 8.6 6.0 52 4.8 N 33 52 18 28 - - 0.0
22/10:30am 15.9 9.7 6.1 52 4.8 N 28 37 15 20 - - 0.0
22/10:00am 15.3 9.5 6.1 54 4.5 N 26 35 14 19 - - 0.0
22/09:30am 14.7 9.8 7.0 60 3.8 N 22 33 12 18 - - 0.0
22/09:00am 14.1 9.7 7.2 63 3.4 N 20 28 11 15 - - 0.0
22/08:30am 13.2 8.9 7.0 66 3.0 N 19 24 10 13 - - 0.0
22/08:00am 12.2 8.3 7.1 71 2.5 N 17 22 9 12 - - 0.0
22/07:30am 11.1 7.6 7.0 76 2.0 N 15 20 8 11 - - 0.0
22/07:00am 10.6 7.0 6.7 77 1.9 N 15 20 8 11 - - 0.0
22/06:30am 10.5 7.2 6.6 77 1.8 N 13 17 7 9 - - 0.0
22/06:00am 10.9 7.7 6.8 76 2.0 N 13 19 7 10 - - 0.0
22/05:30am 10.3 7.1 7.0 80 1.6 N 13 20 7 11 - - 0.0
22/05:00am 10.4 7.3 7.1 80 1.6 N 13 19 7 10 - - 0.0
22/04:30am 10.4 6.9 7.1 80 1.6 NNE 15 24 8 13 - - 0.0
22/04:00am 10.7 6.9 7.6 81 1.5 NNE 17 22 9 12 - - 0.0
22/03:30am 10.9 6.5 7.6 80 1.6 NNE 20 28 11 15 - - 0.0
22/03:00am 10.9 6.7 7.6 80 1.6 NNE 19 26 10 14 - - 0.0
22/02:30am 10.8 7.1 8.0 83 1.4 NNE 17 24 9 13 - - 0.0
22/02:00am 10.5 7.2 8.1 85 1.2 NNE 15 22 8 12 - - 0.0
22/01:30am 10.0 6.6 7.8 86 1.1 NNE 15 19 8 10 - - 0.0
22/01:00am 9.6 7.1 8.2 91 0.7 NNE 11 15 6 8 - - 0.0
22/12:30am 9.0 6.4 7.9 93 0.5 NE 11 17 6 9 - - 0.0
22/12:00am 9.3 6.8 8.2 93 0.5 NE 11 15 6 8 - - 0.0
 
Date/Time
CST
Temp
°C
App
Temp
°C
Dew
Point
Rel
Hum
%
Delta-T
°C
Wind Press
QNH
hPa
Press
MSL
hPa
Rain
since 9 am
mm
Dir
 
Spd
km/h
Gust
km/h
Spd
kts
Gust
kts
21/11:30pm 9.5 7.0 8.3 92 0.6 NE 11 15 6 8 - - 0.0
21/11:00pm 9.1 6.4 7.5 90 0.8 NE 11 13 6 7 - - 0.0
21/10:30pm 9.1 6.4 7.4 89 0.8 NE 11 13 6 7 - - 0.0
21/10:00pm 8.9 6.0 6.3 84 1.2 NE 11 13 6 7 - - 0.0
21/09:30pm 8.8 5.8 5.9 82 1.3 NE 11 13 6 7 - - 0.0
21/09:00pm 7.8 5.0 5.1 83 1.2 ENE 9 11 5 6 - - 0.0
21/08:30pm 8.1 5.5 5.9 86 1.0 ENE 9 11 5 6 - - 0.0
21/08:00pm 8.2 6.1 6.7 90 0.7 ENE 7 9 4 5 - - 0.0
21/07:30pm 9.2 6.4 7.0 86 1.0 ENE 11 13 6 7 - - 0.0
21/07:00pm 9.5 6.4 7.1 85 1.1 ENE 13 15 7 8 - - 0.0
21/06:30pm 9.2 6.8 6.8 85 1.1 ENE 9 11 5 6 - - 0.0
21/06:00pm 10.6 8.7 6.6 76 1.9 ENE 6 7 3 4 - - 0.0
21/05:30pm 11.9 9.5 6.8 71 2.5 ENE 9 13 5 7 - - 0.0
21/05:00pm 13.3 10.6 7.3 67 2.9 NE 11 17 6 9 - - 0.0
21/04:30pm 13.7 10.4 6.3 61 3.6 NE 13 19 7 10 - - 0.0
21/04:00pm 14.1 10.5 6.9 62 3.5 NE 15 19 8 10 - - 0.0
21/03:30pm 14.4 10.4 6.5 59 3.8 NE 17 24 9 13 - - 0.0
21/03:00pm 14.6 10.7 6.9 60 3.8 NE 17 22 9 12 - - 0.0
21/02:30pm 14.8 11.3 7.4 61 3.7 NNE 15 19 8 10 - - 0.0
21/02:00pm 14.5 11.1 7.5 63 3.5 NE 15 22 8 12 - - 0.0
21/01:30pm 14.6 11.4 8.3 66 3.2 NE 15 22 8 12 - - 0.0
21/01:00pm 13.4 9.0 6.7 64 3.3 ENE 19 22 10 12 - - 0.0
21/12:30pm 13.5 9.5 6.8 64 3.3 NNE 17 24 9 13 - - 0.0
21/12:00pm 13.7 9.4 7.0 64 3.3 NE 19 24 10 13 - - 0.0
21/11:30am 13.4 9.8 6.7 64 3.3 NE 15 20 8 11 - - 0.0
21/11:00am 12.8 9.3 7.3 69 2.7 NNE 15 20 8 11 - - 0.0
21/10:30am 12.3 9.2 7.4 72 2.4 ENE 13 17 7 9 - - 0.0
21/10:00am 11.5 8.3 6.8 73 2.3 NE 13 19 7 10 - - 0.0
21/09:30am 10.8 7.6 6.7 76 2.0 NE 13 17 7 9 - - 0.0
21/09:00am 10.2 6.9 6.5 78 1.7 ENE 13 17 7 9 - - -
21/08:30am 9.2 7.2 6.1 81 1.4 ENE 6 7 3 4 - - -
21/08:00am 7.4 5.2 5.2 86 1.0 NE 6 7 3 4 - - -
21/07:30am 5.5 2.8 3.8 89 0.7 E 7 7 4 4 - - -
21/07:00am 4.6 2.0 3.4 92 0.5 E 6 6 3 3 - - -
21/06:30am 4.8 1.6 3.3 90 0.6 E 9 9 5 5 - - -
21/06:00am 4.6 1.8 3.4 92 0.5 E 7 7 4 4 - - -
21/05:30am 4.0 1.3 2.5 90 0.6 ENE 6 6 3 3 - - -
21/05:00am 5.0 2.3 3.8 92 0.5 ENE 7 7 4 4 - - -
21/04:30am 5.1 2.6 3.6 90 0.6 ENE 6 7 3 4 - - -
21/04:00am 5.0 2.2 3.0 87 0.8 ENE 7 9 4 5 - - -
21/03:30am 4.9 2.0 2.6 85 0.9 E 7 9 4 5 - - -
21/03:00am 5.1 1.8 2.6 84 1.0 E 9 11 5 6 - - 0.0
21/02:30am 5.4 1.8 2.8 83 1.1 E 11 13 6 7 - - -
21/02:00am 5.5 1.9 2.7 82 1.2 E 11 13 6 7 - - -
21/01:30am 5.9 1.9 3.1 82 1.2 E 13 15 7 8 - - -
21/01:00am 5.9 2.0 3.2 83 1.1 E 13 17 7 9 - - -
21/12:30am 5.9 2.3 3.1 82 1.2 E 11 13 6 7 - - -
21/12:00am 6.5 3.0 3.3 80 1.4 ENE 11 15 6 8 - - -
 
Date/Time
CST
Temp
°C
App
Temp
°C
Dew
Point
Rel
Hum
%
Delta-T
°C
Wind Press
QNH
hPa
Press
MSL
hPa
Rain
since 9 am
mm
Dir
 
Spd
km/h
Gust
km/h
Spd
kts
Gust
kts
20/11:30pm 6.6 2.7 3.4 80 1.4 E 13 15 7 8 - - -
20/11:00pm 6.3 2.8 3.5 82 1.2 ENE 11 15 6 8 - - -
20/10:30pm 6.4 2.2 3.9 84 1.1 E 15 17 8 9 - - -
20/10:00pm 6.2 3.1 3.7 84 1.1 E 9 13 5 7 - - -
20/09:30pm 6.5 3.8 3.8 83 1.2 E 7 11 4 6 - - -
20/09:00pm 7.8 4.9 4.6 80 1.4 E 9 13 5 7 - - 0.0
20/08:30pm 8.7 5.9 5.3 79 1.5 E 9 13 5 7 - - -
20/08:00pm 9.0 5.8 5.0 76 1.8 ENE 11 13 6 7 - - -
20/07:30pm 8.9 6.2 5.8 81 1.4 E 9 13 5 7 - - -
20/07:00pm 9.3 6.7 5.9 79 1.6 E 9 13 5 7 - - -

Other Formats:

Comma delimited format used in spreadsheet applications
http://www.bom.gov.au/fwo/IDS60801/IDS60801.94807.axf

JavaScript Object Notation format (JSON) in row-major order
http://www.bom.gov.au/fwo/IDS60801/IDS60801.94807.json